Time;durP1;ratioP1;P1;durP2;ratioP2;P2;SDS_P1;SDS_P2;PMS_P1;PMS_P2;Temp;Humidity;BMP_temperature;BMP_pressure;BME280_temperature;BME280_humidity;BME280_pressure;Samples;Min_cycle;Max_cycle;Signal;HPM_P1;HPM_P2
2022/07/08 00:02:03;;;;;;;;;;;20.80;46.40;;;;;;6220259;22;20212;-88
2022/07/08 00:04:29;;;;;;;;;;;20.80;46.50;;;;;;6223175;23;19908;-88
2022/07/08 00:06:54;;;;;;;;;;;20.80;46.50;;;;;;6221212;23;19904;-88
2022/07/08 00:09:20;;;;;;;;;;;20.80;46.40;;;;;;6220779;23;19915;-89
2022/07/08 00:11:46;;;;;;;;;;;20.80;46.40;;;;;;6248306;23;20021;-88
2022/07/08 00:14:11;;;;;;;;;;;20.80;46.40;;;;;;6221139;23;19983;-88
2022/07/08 00:16:40;;;;;;;;;;;20.80;46.40;;;;;;6220593;23;19914;-87
2022/07/08 00:19:11;;;;;;;;;;;20.80;46.30;;;;;;6221246;23;19918;-88
2022/07/08 00:21:37;;;;;;;;;;;20.80;46.40;;;;;;6220141;23;19910;-88
2022/07/08 00:24:03;;;;;;;;;;;20.80;46.40;;;;;;6246591;22;19990;-89
2022/07/08 00:26:28;;;;;;;;;;;20.80;46.40;;;;;;6249057;23;19903;-88
2022/07/08 00:28:54;;;;;;;;;;;20.80;46.30;;;;;;6220507;23;19911;-88
2022/07/08 00:31:19;;;;;;;;;;;20.80;46.30;;;;;;6247673;23;20594;-86
2022/07/08 00:33:45;;;;;;;;;;;20.80;46.30;;;;;;6246946;23;20013;-88
2022/07/08 00:36:10;;;;;;;;;;;20.70;46.30;;;;;;6247390;23;19907;-87
2022/07/08 00:38:35;;;;;;;;;;;20.80;46.20;;;;;;6220675;23;20268;-87
2022/07/08 00:41:02;;;;;;;;;;;20.80;46.20;;;;;;6248182;23;20239;-87
2022/07/08 00:43:36;;;;;;;;;;;20.80;46.20;;;;;;6220755;23;19959;-87
2022/07/08 00:46:01;;;;;;;;;;;20.80;46.20;;;;;;6247154;23;20218;-87
2022/07/08 00:48:27;;;;;;;;;;;20.70;46.10;;;;;;6209459;23;19915;-87
2022/07/08 00:50:58;;;;;;;;;;;20.80;46.10;;;;;;6247876;23;19907;-88
2022/07/08 00:53:23;;;;;;;;;;;20.80;46.10;;;;;;6220157;23;19924;-87
2022/07/08 00:55:49;;;;;;;;;;;20.70;46.10;;;;;;6220370;23;20412;-88
2022/07/08 00:58:15;;;;;;;;;;;20.70;46.10;;;;;;6220515;23;19918;-87
2022/07/08 01:00:40;;;;;;;;;;;20.80;46.10;;;;;;6220852;23;19942;-87
2022/07/08 01:03:06;;;;;;;;;;;20.80;46.00;;;;;;6248342;23;20244;-87
2022/07/08 01:05:31;;;;;;;;;;;20.70;46.10;;;;;;6219609;23;19966;-86
2022/07/08 01:07:57;;;;;;;;;;;20.70;46.20;;;;;;6245125;23;19931;-87
2022/07/08 01:10:22;;;;;;;;;;;20.70;46.20;;;;;;6221604;23;19915;-87
2022/07/08 01:12:48;;;;;;;;;;;20.70;46.10;;;;;;6247534;23;19919;-87
2022/07/08 01:15:14;;;;;;;;;;;20.80;46.10;;;;;;6247066;23;19966;-87
2022/07/08 01:17:40;;;;;;;;;;;20.80;46.00;;;;;;6247283;22;20002;-87
2022/07/08 01:20:06;;;;;;;;;;;20.80;46.00;;;;;;6248181;22;19912;-87
2022/07/08 01:22:31;;;;;;;;;;;20.80;46.00;;;;;;6248939;23;19938;-88
2022/07/08 01:24:57;;;;;;;;;;;20.70;46.00;;;;;;6248714;23;19912;-88
2022/07/08 01:27:22;;;;;;;;;;;20.70;46.00;;;;;;6221294;23;19914;-88
2022/07/08 01:29:48;;;;;;;;;;;20.70;46.00;;;;;;6221439;23;19912;-88
2022/07/08 01:32:13;;;;;;;;;;;20.70;45.90;;;;;;6198851;23;19912;-87
2022/07/08 01:34:39;;;;;;;;;;;20.70;46.00;;;;;;6248838;22;19965;-87
2022/07/08 01:37:04;;;;;;;;;;;20.80;46.00;;;;;;6248328;23;19908;-87
2022/07/08 01:39:29;;;;;;;;;;;20.70;45.90;;;;;;6221998;23;19912;-88
2022/07/08 01:41:55;;;;;;;;;;;20.70;45.90;;;;;;6221177;23;20309;-88
2022/07/08 01:44:20;;;;;;;;;;;20.70;45.80;;;;;;6222019;23;19908;-88
2022/07/08 01:46:46;;;;;;;;;;;20.70;45.90;;;;;;6248284;22;19915;-88
2022/07/08 01:49:14;;;;;;;;;;;20.70;45.80;;;;;;6220656;23;19982;-89
2022/07/08 01:51:40;;;;;;;;;;;20.70;45.90;;;;;;6221054;23;19927;-88
2022/07/08 01:54:05;;;;;;;;;;;20.70;46.00;;;;;;6221572;23;19920;-88
2022/07/08 01:56:31;;;;;;;;;;;20.70;46.00;;;;;;6248185;23;19911;-88
2022/07/08 01:58:56;;;;;;;;;;;20.70;46.00;;;;;;6221342;23;19908;-88
2022/07/08 02:01:22;;;;;;;;;;;20.70;46.00;;;;;;6221809;22;19920;-88
2022/07/08 02:03:47;;;;;;;;;;;20.70;46.10;;;;;;6221332;23;19900;-88
2022/07/08 02:06:12;;;;;;;;;;;20.60;46.10;;;;;;6248357;22;19915;-88
2022/07/08 02:08:38;;;;;;;;;;;20.60;46.00;;;;;;6246955;23;19986;-88
2022/07/08 02:13:47;;;;;;;;;;;20.60;46.20;;;;;;6247506;23;19923;-88
2022/07/08 02:16:13;;;;;;;;;;;20.50;46.20;;;;;;6248298;22;19907;-88
2022/07/08 02:18:38;;;;;;;;;;;20.50;46.30;;;;;;6221010;23;19908;-88
2022/07/08 02:21:04;;;;;;;;;;;20.50;46.30;;;;;;6220365;22;19907;-88
2022/07/08 02:23:29;;;;;;;;;;;20.50;46.30;;;;;;6247739;23;20046;-88
2022/07/08 02:25:55;;;;;;;;;;;20.50;46.20;;;;;;6247342;23;19993;-88
2022/07/08 02:28:20;;;;;;;;;;;20.50;46.20;;;;;;6220639;23;19920;-88
2022/07/08 02:30:46;;;;;;;;;;;20.60;46.20;;;;;;6220498;23;19992;-87
2022/07/08 02:33:12;;;;;;;;;;;20.50;46.10;;;;;;6247022;23;19981;-88
2022/07/08 02:35:38;;;;;;;;;;;20.60;46.10;;;;;;6248075;23;19912;-88
2022/07/08 02:38:03;;;;;;;;;;;20.60;46.10;;;;;;6220834;23;19961;-88
2022/07/08 02:40:29;;;;;;;;;;;20.60;46.10;;;;;;6247514;23;19915;-88
2022/07/08 02:42:54;;;;;;;;;;;20.60;46.10;;;;;;6246369;22;19918;-88
2022/07/08 02:45:20;;;;;;;;;;;20.60;46.10;;;;;;6248046;23;19907;-88
2022/07/08 02:47:45;;;;;;;;;;;20.60;46.10;;;;;;6247824;23;19907;-88
2022/07/08 02:50:10;;;;;;;;;;;20.50;46.20;;;;;;6220665;23;20213;-88
2022/07/08 02:52:36;;;;;;;;;;;20.50;46.20;;;;;;6220923;23;19911;-88
2022/07/08 02:55:01;;;;;;;;;;;20.60;46.30;;;;;;6247986;23;19945;-88
2022/07/08 02:57:27;;;;;;;;;;;20.50;46.20;;;;;;6220983;23;19907;-88
2022/07/08 02:59:52;;;;;;;;;;;20.60;46.20;;;;;;6247621;23;19915;-89
2022/07/08 03:02:18;;;;;;;;;;;20.60;46.20;;;;;;6220897;23;19942;-88
2022/07/08 03:04:43;;;;;;;;;;;20.50;46.20;;;;;;6247464;23;19907;-88
2022/07/08 03:07:09;;;;;;;;;;;20.60;46.20;;;;;;6220518;23;20376;-88
2022/07/08 03:09:34;;;;;;;;;;;20.50;46.20;;;;;;6247745;23;19938;-88
2022/07/08 03:12:00;;;;;;;;;;;20.60;46.20;;;;;;6247261;22;19924;-88
2022/07/08 03:14:25;;;;;;;;;;;20.60;46.30;;;;;;6246424;23;19907;-88
2022/07/08 03:16:51;;;;;;;;;;;20.60;46.30;;;;;;6247556;22;19911;-88
2022/07/08 03:19:16;;;;;;;;;;;20.60;46.30;;;;;;6247424;23;19991;-88
2022/07/08 03:21:41;;;;;;;;;;;20.60;46.30;;;;;;6220173;23;19977;-88
2022/07/08 03:24:07;;;;;;;;;;;20.60;46.30;;;;;;6247488;23;19908;-87
2022/07/08 03:26:33;;;;;;;;;;;20.60;46.40;;;;;;6215306;23;19918;-88
2022/07/08 03:28:59;;;;;;;;;;;20.50;46.40;;;;;;6215399;23;19925;-88
2022/07/08 03:31:24;;;;;;;;;;;20.50;46.50;;;;;;6248110;22;20015;-88
2022/07/08 03:33:50;;;;;;;;;;;20.60;46.50;;;;;;6247801;23;19998;-88
2022/07/08 03:36:16;;;;;;;;;;;20.60;46.60;;;;;;6220431;22;19908;-88
2022/07/08 03:38:41;;;;;;;;;;;20.50;46.50;;;;;;6220344;23;20395;-88
2022/07/08 03:41:23;;;;;;;;;;;20.60;46.50;;;;;;6247114;23;20208;-89
2022/07/08 03:43:49;;;;;;;;;;;20.60;46.50;;;;;;6246967;23;19908;-88
2022/07/08 03:46:15;;;;;;;;;;;20.60;46.60;;;;;;6246461;22;19903;-88
2022/07/08 03:48:41;;;;;;;;;;;20.60;46.60;;;;;;6246592;23;19908;-87
2022/07/08 03:51:07;;;;;;;;;;;20.60;46.50;;;;;;6247110;22;19903;-88
2022/07/08 03:53:32;;;;;;;;;;;20.60;46.50;;;;;;6220907;23;19978;-88
2022/07/08 03:55:57;;;;;;;;;;;20.70;46.50;;;;;;6219914;23;19904;-88
2022/07/08 03:58:23;;;;;;;;;;;20.70;46.50;;;;;;6247118;22;20494;-88
2022/07/08 04:00:49;;;;;;;;;;;20.70;46.50;;;;;;6247419;23;19903;-88
2022/07/08 04:03:14;;;;;;;;;;;20.70;46.50;;;;;;6247038;23;19922;-88
2022/07/08 04:05:39;;;;;;;;;;;20.70;46.50;;;;;;6220259;23;20002;-88
2022/07/08 04:08:05;;;;;;;;;;;20.70;46.50;;;;;;6220139;23;19911;-88
2022/07/08 04:10:31;;;;;;;;;;;20.70;46.50;;;;;;6220782;23;20374;-88
2022/07/08 04:12:56;;;;;;;;;;;20.70;46.60;;;;;;6247567;22;19912;-88
2022/07/08 04:15:22;;;;;;;;;;;20.80;46.60;;;;;;6169747;23;1776964;-88
2022/07/08 04:17:47;;;;;;;;;;;20.70;46.50;;;;;;6248341;22;20308;-88
2022/07/08 04:20:13;;;;;;;;;;;20.80;46.50;;;;;;6247426;23;19990;-88
2022/07/08 04:22:38;;;;;;;;;;;20.80;46.40;;;;;;6221202;23;19907;-88
2022/07/08 04:25:05;;;;;;;;;;;20.90;46.40;;;;;;6221299;23;19912;-88
2022/07/08 04:27:30;;;;;;;;;;;20.90;46.30;;;;;;6221944;23;19918;-88
2022/07/08 04:29:56;;;;;;;;;;;21.00;46.20;;;;;;6246765;23;19912;-88
2022/07/08 04:32:21;;;;;;;;;;;21.00;46.20;;;;;;6247261;23;19916;-88
2022/07/08 04:34:47;;;;;;;;;;;21.10;46.10;;;;;;6246312;23;19915;-87
2022/07/08 04:37:13;;;;;;;;;;;21.10;46.00;;;;;;6245237;23;19947;-88
2022/07/08 04:39:38;;;;;;;;;;;21.10;46.00;;;;;;6220669;23;19962;-88
2022/07/08 04:42:04;;;;;;;;;;;21.20;45.90;;;;;;6246764;23;19990;-87
2022/07/08 04:44:30;;;;;;;;;;;21.20;45.80;;;;;;6248323;23;19912;-88
2022/07/08 04:46:55;;;;;;;;;;;21.20;45.80;;;;;;6245831;23;19908;-87
2022/07/08 04:49:21;;;;;;;;;;;21.30;45.80;;;;;;6246519;23;19908;-87
2022/07/08 04:51:46;;;;;;;;;;;21.30;45.70;;;;;;6246755;23;20240;-88
2022/07/08 04:54:12;;;;;;;;;;;21.30;45.70;;;;;;6246312;23;19911;-88
2022/07/08 04:56:37;;;;;;;;;;;21.40;45.60;;;;;;6247773;23;20404;-87
2022/07/08 04:59:02;;;;;;;;;;;21.40;45.60;;;;;;6247521;22;19908;-88
2022/07/08 05:01:28;;;;;;;;;;;21.50;45.60;;;;;;6247393;23;19931;-88
2022/07/08 05:03:54;;;;;;;;;;;21.60;45.50;;;;;;6245723;23;19982;-88
2022/07/08 05:06:19;;;;;;;;;;;21.60;45.40;;;;;;6245942;23;19934;-88
2022/07/08 05:08:45;;;;;;;;;;;21.70;45.30;;;;;;6245838;23;19916;-88
2022/07/08 05:11:10;;;;;;;;;;;21.80;45.30;;;;;;6247591;23;19908;-88
2022/07/08 05:13:35;;;;;;;;;;;21.90;45.10;;;;;;6246306;23;19992;-88
2022/07/08 05:16:01;;;;;;;;;;;21.90;45.00;;;;;;6247385;23;19912;-88
2022/07/08 05:18:26;;;;;;;;;;;21.90;44.90;;;;;;6247744;23;19912;-87
2022/07/08 05:20:52;;;;;;;;;;;22.00;44.90;;;;;;6247117;23;19904;-88
2022/07/08 05:23:17;;;;;;;;;;;22.10;44.80;;;;;;6246642;22;19954;-88
2022/07/08 05:25:43;;;;;;;;;;;22.20;44.70;;;;;;6246365;23;20240;-88
2022/07/08 05:28:08;;;;;;;;;;;22.20;44.70;;;;;;6246444;23;19983;-88
2022/07/08 05:30:34;;;;;;;;;;;22.30;44.60;;;;;;6248291;23;19953;-87
2022/07/08 05:32:59;;;;;;;;;;;22.40;44.50;;;;;;6246229;23;19912;-88
2022/07/08 05:35:25;;;;;;;;;;;22.50;44.40;;;;;;6247788;23;20042;-88
2022/07/08 05:37:50;;;;;;;;;;;22.60;44.30;;;;;;6247675;23;19903;-89
2022/07/08 05:40:16;;;;;;;;;;;22.70;44.30;;;;;;6246800;23;19987;-88
2022/07/08 05:42:42;;;;;;;;;;;22.80;44.20;;;;;;6247764;23;20457;-88
2022/07/08 05:45:08;;;;;;;;;;;22.90;44.00;;;;;;6245988;23;19930;-88
2022/07/08 05:47:33;;;;;;;;;;;23.00;43.90;;;;;;6218576;23;19903;-88
2022/07/08 05:49:59;;;;;;;;;;;23.10;43.80;;;;;;6218225;23;20341;-88
2022/07/08 05:52:25;;;;;;;;;;;23.10;43.50;;;;;;6246167;23;19972;-88
2022/07/08 05:54:50;;;;;;;;;;;23.20;43.40;;;;;;6220249;23;19916;-88
2022/07/08 05:57:16;;;;;;;;;;;23.30;43.30;;;;;;6218524;23;19982;-88
2022/07/08 05:59:42;;;;;;;;;;;23.30;43.20;;;;;;6219256;23;19916;-88
2022/07/08 06:02:07;;;;;;;;;;;23.30;43.20;;;;;;6219121;23;19903;-88
2022/07/08 06:04:33;;;;;;;;;;;23.40;43.10;;;;;;6245983;22;19918;-88
2022/07/08 06:06:58;;;;;;;;;;;23.50;43.10;;;;;;6246847;23;19916;-88
2022/07/08 06:09:24;;;;;;;;;;;23.60;42.90;;;;;;6246171;23;19908;-88
2022/07/08 06:11:50;;;;;;;;;;;23.80;42.80;;;;;;6245712;23;19915;-88
2022/07/08 06:14:15;;;;;;;;;;;23.90;42.70;;;;;;6220397;23;19950;-88
2022/07/08 06:16:41;;;;;;;;;;;24.00;42.40;;;;;;6245036;23;20227;-88
2022/07/08 06:19:06;;;;;;;;;;;24.20;42.20;;;;;;6219388;23;19915;-87
2022/07/08 06:21:32;;;;;;;;;;;24.30;42.10;;;;;;6247056;23;19903;-88
2022/07/08 06:23:57;;;;;;;;;;;24.40;41.90;;;;;;6247661;22;19915;-88
2022/07/08 06:26:23;;;;;;;;;;;24.50;41.70;;;;;;6246793;23;19904;-88
2022/07/08 06:28:48;;;;;;;;;;;24.70;41.60;;;;;;6245618;23;19912;-89
2022/07/08 06:31:14;;;;;;;;;;;24.80;41.30;;;;;;6245602;23;19904;-88
2022/07/08 06:33:39;;;;;;;;;;;25.00;41.20;;;;;;6246544;22;19973;-88
2022/07/08 06:36:05;;;;;;;;;;;25.20;40.70;;;;;;6220329;23;20342;-88
2022/07/08 06:38:30;;;;;;;;;;;25.30;40.70;;;;;;6246639;22;20275;-89
2022/07/08 06:40:56;;;;;;;;;;;25.50;40.40;;;;;;6220013;23;19954;-88
2022/07/08 06:43:22;;;;;;;;;;;25.80;40.40;;;;;;6247221;22;19981;-89
2022/07/08 06:45:48;;;;;;;;;;;26.20;40.20;;;;;;6246114;23;19961;-89
2022/07/08 06:48:14;;;;;;;;;;;26.50;39.50;;;;;;6247932;22;20305;-88
2022/07/08 06:50:42;;;;;;;;;;;26.80;39.30;;;;;;6255763;23;20580;-88
2022/07/08 06:53:07;;;;;;;;;;;27.20;38.80;;;;;;6245963;23;19994;-89
2022/07/08 06:55:33;;;;;;;;;;;27.50;38.50;;;;;;6219391;23;20355;-89
2022/07/08 06:57:58;;;;;;;;;;;27.80;37.70;;;;;;6246901;23;20366;-89
2022/07/08 07:00:24;;;;;;;;;;;28.00;37.00;;;;;;6245635;23;19990;-89
2022/07/08 07:02:50;;;;;;;;;;;28.20;36.60;;;;;;6247274;23;20316;-89
2022/07/08 07:05:17;;;;;;;;;;;28.20;35.90;;;;;;6220068;23;19915;-89
2022/07/08 07:07:43;;;;;;;;;;;28.20;36.00;;;;;;6247659;23;19949;-89
2022/07/08 07:10:08;;;;;;;;;;;28.30;36.40;;;;;;6220948;23;19946;-89
2022/07/08 07:12:34;;;;;;;;;;;28.60;35.90;;;;;;6247679;23;20213;-88
2022/07/08 07:15:00;;;;;;;;;;;28.90;35.70;;;;;;6248681;23;19965;-89
2022/07/08 07:17:25;;;;;;;;;;;29.20;35.20;;;;;;6247492;23;20313;-86
2022/07/08 07:19:50;;;;;;;;;;;29.30;34.00;;;;;;6223537;23;19907;-89
2022/07/08 07:22:16;;;;;;;;;;;29.50;33.90;;;;;;6225907;23;19907;-90
2022/07/08 07:24:42;;;;;;;;;;;29.50;33.60;;;;;;6249843;23;19908;-89
2022/07/08 07:27:07;;;;;;;;;;;29.70;33.40;;;;;;6223174;23;19935;-87
2022/07/08 07:29:33;;;;;;;;;;;30.00;33.90;;;;;;6247337;22;19954;-87
2022/07/08 07:31:59;;;;;;;;;;;30.50;33.90;;;;;;6221688;23;19908;-86
2022/07/08 07:34:24;;;;;;;;;;;31.20;32.80;;;;;;6221028;23;19945;-86
2022/07/08 07:36:50;;;;;;;;;;;31.50;31.50;;;;;;6247502;23;19908;-86
2022/07/08 07:39:15;;;;;;;;;;;31.60;30.50;;;;;;6221922;23;20278;-86
2022/07/08 07:41:41;;;;;;;;;;;31.40;30.00;;;;;;6246500;23;20336;-88
2022/07/08 07:44:06;;;;;;;;;;;31.20;29.50;;;;;;6248655;22;20252;-89
2022/07/08 07:46:35;;;;;;;;;;;31.20;29.70;;;;;;6249050;23;19907;-87
2022/07/08 07:49:01;;;;;;;;;;;31.50;29.50;;;;;;6247089;22;19919;-88
2022/07/08 07:51:27;;;;;;;;;;;31.80;29.20;;;;;;6223971;23;19908;-87
2022/07/08 07:53:53;;;;;;;;;;;31.90;29.00;;;;;;6249663;22;19990;-88
2022/07/08 07:56:18;;;;;;;;;;;32.00;27.90;;;;;;6247777;23;19935;-89
2022/07/08 07:58:44;;;;;;;;;;;32.00;28.30;;;;;;6224515;23;19908;-88
2022/07/08 08:01:09;;;;;;;;;;;32.30;28.10;;;;;;6252863;23;19918;-87
2022/07/08 08:03:35;;;;;;;;;;;32.80;27.30;;;;;;6246423;22;19912;-87
2022/07/08 08:06:00;;;;;;;;;;;33.00;26.40;;;;;;6219649;23;19990;-87
2022/07/08 08:08:26;;;;;;;;;;;33.10;26.80;;;;;;6219241;22;19904;-87
2022/07/08 08:10:52;;;;;;;;;;;33.30;27.20;;;;;;6244737;23;19965;-87
2022/07/08 08:13:18;;;;;;;;;;;33.40;26.70;;;;;;6246503;23;19908;-88
2022/07/08 08:15:44;;;;;;;;;;;33.70;27.00;;;;;;6247342;23;19919;-87
2022/07/08 08:18:10;;;;;;;;;;;34.00;26.50;;;;;;6248431;23;20320;-87
2022/07/08 08:20:35;;;;;;;;;;;34.10;26.00;;;;;;6244595;23;20014;-87
2022/07/08 08:23:01;;;;;;;;;;;34.50;26.40;;;;;;6219658;23;19979;-88
2022/07/08 08:25:29;;;;;;;;;;;35.00;26.00;;;;;;6247328;23;19911;-87
2022/07/08 08:27:56;;;;;;;;;;;35.50;24.50;;;;;;6244716;23;19907;-87
2022/07/08 08:30:21;;;;;;;;;;;36.00;24.30;;;;;;6245516;22;19903;-87
2022/07/08 08:32:53;;;;;;;;;;;36.30;23.80;;;;;;6221545;23;20280;-88
2022/07/08 08:35:19;;;;;;;;;;;36.30;23.60;;;;;;6245384;22;20519;-87
2022/07/08 08:37:44;;;;;;;;;;;36.00;23.00;;;;;;6220252;23;19904;-87
2022/07/08 08:40:10;;;;;;;;;;;36.00;23.00;;;;;;6245118;22;19911;-89
2022/07/08 08:42:36;;;;;;;;;;;36.30;23.30;;;;;;6218424;23;19911;-89
2022/07/08 08:45:03;;;;;;;;;;;36.70;22.10;;;;;;6244916;22;20515;-89
2022/07/08 08:47:29;;;;;;;;;;;36.90;21.50;;;;;;6245653;23;19908;-89
2022/07/08 08:49:55;;;;;;;;;;;36.90;21.40;;;;;;6245149;23;19904;-89
2022/07/08 08:52:22;;;;;;;;;;;36.80;21.50;;;;;;6218116;23;19939;-88
2022/07/08 08:54:47;;;;;;;;;;;36.80;21.50;;;;;;6245539;23;19916;-88
2022/07/08 08:57:13;;;;;;;;;;;37.10;22.00;;;;;;6218915;23;19934;-88
2022/07/08 08:59:39;;;;;;;;;;;37.40;22.20;;;;;;6218397;23;19912;-89
2022/07/08 09:02:04;;;;;;;;;;;37.90;22.00;;;;;;6244088;22;19998;-89
2022/07/08 09:04:33;;;;;;;;;;;38.50;21.20;;;;;;6246795;22;20399;-89
2022/07/08 09:07:00;;;;;;;;;;;39.10;20.40;;;;;;6245629;23;19918;-89
2022/07/08 09:09:25;;;;;;;;;;;39.50;19.90;;;;;;6246096;22;20279;-88
2022/07/08 09:11:51;;;;;;;;;;;39.50;19.30;;;;;;6218188;23;19908;-89
2022/07/08 09:14:20;;;;;;;;;;;39.10;19.00;;;;;;6243730;23;19924;-88
2022/07/08 09:17:04;;;;;;;;;;;38.70;19.60;;;;;;6246182;23;20635;-89
2022/07/08 09:19:30;;;;;;;;;;;38.40;20.20;;;;;;6226301;23;19915;-87
2022/07/08 09:21:55;;;;;;;;;;;38.40;20.70;;;;;;6252030;23;19923;-88
2022/07/08 09:24:21;;;;;;;;;;;38.70;20.80;;;;;;6223941;23;19954;-90
2022/07/08 09:26:47;;;;;;;;;;;38.80;20.50;;;;;;6201041;23;19912;-88
2022/07/08 09:29:13;;;;;;;;;;;39.10;20.20;;;;;;6252193;23;20007;-88
2022/07/08 09:31:40;;;;;;;;;;;39.50;19.80;;;;;;6253428;23;19946;-88
2022/07/08 09:34:09;;;;;;;;;;;40.00;19.60;;;;;;6247797;23;19911;-88
2022/07/08 09:36:48;;;;;;;;;;;40.60;19.00;;;;;;6223316;23;19916;-88
2022/07/08 09:39:26;;;;;;;;;;;40.90;18.30;;;;;;6195135;23;19991;-88
2022/07/08 09:41:52;;;;;;;;;;;40.80;18.50;;;;;;6223617;23;19915;-89
2022/07/08 09:44:20;;;;;;;;;;;40.70;18.60;;;;;;6223624;23;20319;-89
2022/07/08 09:46:46;;;;;;;;;;;40.40;18.50;;;;;;6249699;22;19923;-88
2022/07/08 09:49:32;;;;;;;;;;;40.10;18.70;;;;;;6223865;23;19903;-88
2022/07/08 09:51:58;;;;;;;;;;;39.80;18.90;;;;;;6251950;22;19918;-88
2022/07/08 09:54:24;;;;;;;;;;;39.60;19.30;;;;;;6199636;23;19916;-88
2022/07/08 09:56:57;;;;;;;;;;;39.40;19.10;;;;;;6225030;23;19922;-88
2022/07/08 09:59:22;;;;;;;;;;;39.20;19.30;;;;;;6224471;23;19908;-89
2022/07/08 10:01:48;;;;;;;;;;;38.90;19.30;;;;;;6251969;23;19973;-88
2022/07/08 10:04:14;;;;;;;;;;;38.50;19.30;;;;;;6251551;23;20271;-87
2022/07/08 10:06:39;;;;;;;;;;;38.00;19.60;;;;;;6223895;23;19915;-87
2022/07/08 10:09:06;;;;;;;;;;;37.60;20.10;;;;;;6252309;23;19904;-88
2022/07/08 10:11:31;;;;;;;;;;;37.20;20.70;;;;;;6225965;23;19950;-88
2022/07/08 10:13:58;;;;;;;;;;;37.20;21.10;;;;;;6251575;23;19916;-88
2022/07/08 10:16:24;;;;;;;;;;;37.30;21.40;;;;;;6225225;23;20239;-87
2022/07/08 10:18:51;;;;;;;;;;;37.70;21.30;;;;;;6224003;23;19986;-88
2022/07/08 10:21:19;;;;;;;;;;;37.90;20.90;;;;;;6251300;22;19915;-88
2022/07/08 10:23:45;;;;;;;;;;;38.10;21.00;;;;;;6221059;23;19903;-87
2022/07/08 10:26:11;;;;;;;;;;;38.30;21.00;;;;;;6218717;23;19911;-87
2022/07/08 10:28:39;;;;;;;;;;;38.40;20.90;;;;;;6218954;23;19907;-87
2022/07/08 10:31:23;;;;;;;;;;;38.40;20.60;;;;;;6246526;22;19915;-88
2022/07/08 10:33:50;;;;;;;;;;;38.40;20.70;;;;;;6245763;23;19943;-87
2022/07/08 10:36:20;;;;;;;;;;;38.30;20.40;;;;;;6219167;23;19911;-88
2022/07/08 10:38:46;;;;;;;;;;;38.20;20.20;;;;;;6246271;23;19915;-88
2022/07/08 10:41:12;;;;;;;;;;;37.80;20.10;;;;;;6246711;22;19915;-88
2022/07/08 10:43:48;;;;;;;;;;;37.60;20.60;;;;;;6219474;23;20294;-87
2022/07/08 10:46:17;;;;;;;;;;;37.70;20.80;;;;;;6245902;23;19916;-88
2022/07/08 10:48:43;;;;;;;;;;;37.80;21.00;;;;;;6246045;23;19946;-88
2022/07/08 10:51:17;;;;;;;;;;;37.90;20.80;;;;;;6218139;23;19998;-87
2022/07/08 10:53:58;;;;;;;;;;;37.80;20.40;;;;;;6218629;23;19934;-87
2022/07/08 10:56:42;;;;;;;;;;;37.60;20.40;;;;;;6218820;23;19954;-87
2022/07/08 10:59:16;;;;;;;;;;;37.30;20.90;;;;;;6219171;23;19908;-87
2022/07/08 11:01:51;;;;;;;;;;;37.10;21.20;;;;;;6219541;23;19959;-87
2022/07/08 11:04:20;;;;;;;;;;;36.80;21.50;;;;;;6245920;23;20312;-86
2022/07/08 11:06:46;;;;;;;;;;;36.70;21.60;;;;;;6246014;22;19912;-87
2022/07/08 11:09:15;;;;;;;;;;;36.30;21.70;;;;;;6246206;23;19915;-87
2022/07/08 11:11:40;;;;;;;;;;;36.10;22.10;;;;;;6218868;23;20296;-87
2022/07/08 11:14:06;;;;;;;;;;;36.00;22.40;;;;;;6245276;23;19938;-87
2022/07/08 11:16:32;;;;;;;;;;;35.90;22.70;;;;;;6245851;22;19920;-87
2022/07/08 11:18:57;;;;;;;;;;;35.90;22.90;;;;;;6243777;23;19908;-88
2022/07/08 11:21:23;;;;;;;;;;;35.80;23.00;;;;;;6218349;23;20335;-88
2022/07/08 11:23:48;;;;;;;;;;;35.90;23.10;;;;;;6219014;23;20170;-88
2022/07/08 11:26:17;;;;;;;;;;;35.90;23.10;;;;;;6246889;23;19965;-87
2022/07/08 11:28:43;;;;;;;;;;;35.90;23.20;;;;;;6247631;23;19975;-87
2022/07/08 11:31:25;;;;;;;;;;;36.00;23.20;;;;;;6244787;23;19942;-88
2022/07/08 11:33:51;;;;;;;;;;;36.00;23.30;;;;;;6222682;23;19912;-88
2022/07/08 11:36:17;;;;;;;;;;;36.00;23.30;;;;;;6223750;23;19912;-87
2022/07/08 11:38:46;;;;;;;;;;;36.00;23.30;;;;;;6223181;23;19918;-88
2022/07/08 11:41:12;;;;;;;;;;;36.00;23.60;;;;;;6245021;22;19977;-88
2022/07/08 11:43:38;;;;;;;;;;;36.00;23.70;;;;;;6245193;23;19904;-87
2022/07/08 11:46:13;;;;;;;;;;;36.20;23.60;;;;;;6245004;22;19943;-87
2022/07/08 11:48:38;;;;;;;;;;;36.20;23.30;;;;;;6217622;23;19907;-87
2022/07/08 11:51:04;;;;;;;;;;;36.00;23.20;;;;;;6215825;23;19923;-87
2022/07/08 11:53:30;;;;;;;;;;;35.80;23.30;;;;;;6244006;23;19916;-87
2022/07/08 11:55:56;;;;;;;;;;;35.80;23.70;;;;;;6244925;22;19911;-87
2022/07/08 11:58:22;;;;;;;;;;;35.80;23.80;;;;;;6217430;23;19930;-87
2022/07/08 12:00:48;;;;;;;;;;;35.70;23.60;;;;;;6216505;23;20255;-87
2022/07/08 12:03:13;;;;;;;;;;;35.60;23.80;;;;;;6217571;23;19907;-87
2022/07/08 12:05:39;;;;;;;;;;;35.50;24.00;;;;;;6244354;22;19918;-87
2022/07/08 12:08:11;;;;;;;;;;;35.60;24.20;;;;;;6244654;23;19908;-87
2022/07/08 12:10:37;;;;;;;;;;;35.80;24.30;;;;;;6244839;22;19935;-87
2022/07/08 12:13:02;;;;;;;;;;;36.00;24.20;;;;;;6243327;23;19912;-88
2022/07/08 12:15:35;;;;;;;;;;;36.10;24.20;;;;;;6244349;22;19950;-87
2022/07/08 12:18:00;;;;;;;;;;;36.30;24.10;;;;;;6217334;23;19911;-87
2022/07/08 12:20:36;;;;;;;;;;;36.50;24.10;;;;;;6244269;22;20335;-88
2022/07/08 12:23:02;;;;;;;;;;;36.70;24.00;;;;;;6245149;23;19903;-88
2022/07/08 12:25:27;;;;;;;;;;;37.20;23.70;;;;;;6218207;23;19919;-88
2022/07/08 12:27:56;;;;;;;;;;;37.40;23.50;;;;;;6245021;23;19904;-88
2022/07/08 12:30:26;;;;;;;;;;;37.70;23.30;;;;;;6245054;22;19919;-87
2022/07/08 12:32:52;;;;;;;;;;;37.90;23.20;;;;;;6217426;23;19974;-87
2022/07/08 12:35:17;;;;;;;;;;;38.00;22.60;;;;;;6244500;22;19904;-87
2022/07/08 12:37:43;;;;;;;;;;;38.10;22.30;;;;;;6216963;23;19907;-88
2022/07/08 12:40:13;;;;;;;;;;;38.10;22.40;;;;;;6242837;23;19907;-88
2022/07/08 12:42:38;;;;;;;;;;;38.20;22.60;;;;;;6217419;23;19915;-88
2022/07/08 12:45:12;;;;;;;;;;;38.30;22.50;;;;;;6244536;23;20219;-88
2022/07/08 12:47:38;;;;;;;;;;;38.50;22.40;;;;;;6244004;23;19962;-88
2022/07/08 12:50:06;;;;;;;;;;;39.00;22.00;;;;;;6243557;23;20325;-88
2022/07/08 12:52:34;;;;;;;;;;;39.20;21.90;;;;;;6245821;23;19914;-91
2022/07/08 12:55:00;;;;;;;;;;;39.20;21.70;;;;;;6242419;23;19912;-91
2022/07/08 12:57:25;;;;;;;;;;;39.00;21.80;;;;;;6242203;23;19943;-91
2022/07/08 12:59:51;;;;;;;;;;;39.10;21.90;;;;;;6244060;23;20324;-91
2022/07/08 13:02:16;;;;;;;;;;;39.10;21.90;;;;;;6216685;23;20356;-90
2022/07/08 13:04:42;;;;;;;;;;;38.80;21.70;;;;;;6244071;23;19915;-90
2022/07/08 13:07:11;;;;;;;;;;;38.40;22.00;;;;;;6244306;23;19916;-91
2022/07/08 13:09:39;;;;;;;;;;;38.20;22.30;;;;;;6216772;23;20259;-90
2022/07/08 13:12:05;;;;;;;;;;;38.30;22.50;;;;;;6243937;22;19922;-91
2022/07/08 13:14:33;;;;;;;;;;;38.20;22.70;;;;;;6216596;23;19912;-91
2022/07/08 13:16:59;;;;;;;;;;;38.40;22.80;;;;;;6218175;23;20307;-91
2022/07/08 13:19:24;;;;;;;;;;;39.00;22.40;;;;;;6246786;23;19907;-91
2022/07/08 13:21:49;;;;;;;;;;;39.30;22.10;;;;;;6246811;22;20318;-90
2022/07/08 13:24:15;;;;;;;;;;;39.50;22.10;;;;;;6245726;23;19955;-91
2022/07/08 13:26:41;;;;;;;;;;;40.10;21.80;;;;;;6247892;22;20251;-91
2022/07/08 13:29:07;;;;;;;;;;;40.20;21.60;;;;;;6245576;23;20269;-91
2022/07/08 13:31:32;;;;;;;;;;;40.00;21.50;;;;;;6246361;23;19950;-91
2022/07/08 13:34:01;;;;;;;;;;;40.00;21.30;;;;;;6218054;23;20335;-91
2022/07/08 13:36:27;;;;;;;;;;;40.10;21.20;;;;;;6245963;22;19938;-91
2022/07/08 13:38:53;;;;;;;;;;;40.10;21.20;;;;;;6221124;23;19907;-91
2022/07/08 13:41:19;;;;;;;;;;;39.80;21.30;;;;;;6244075;23;19990;-91
2022/07/08 13:43:44;;;;;;;;;;;39.60;21.80;;;;;;6244364;23;19916;-90
2022/07/08 13:46:11;;;;;;;;;;;40.30;21.50;;;;;;6219145;23;19918;-91
2022/07/08 13:48:37;;;;;;;;;;;40.60;21.00;;;;;;6246257;22;19919;-91
2022/07/08 13:51:03;;;;;;;;;;;40.40;21.10;;;;;;6245658;23;19977;-90
2022/07/08 13:53:29;;;;;;;;;;;40.00;21.30;;;;;;6218657;23;19943;-91
2022/07/08 13:55:54;;;;;;;;;;;39.50;21.50;;;;;;6243651;23;19914;-90
2022/07/08 13:58:20;;;;;;;;;;;38.80;22.10;;;;;;6245765;22;19931;-90
2022/07/08 14:00:46;;;;;;;;;;;38.30;22.60;;;;;;6218361;23;19970;-90
2022/07/08 14:03:11;;;;;;;;;;;37.80;23.00;;;;;;6246730;23;19982;-90
2022/07/08 14:05:40;;;;;;;;;;;37.40;23.60;;;;;;6218822;23;19915;-90
2022/07/08 14:08:05;;;;;;;;;;;37.20;24.00;;;;;;6243411;23;19912;-90
2022/07/08 14:10:31;;;;;;;;;;;37.00;24.20;;;;;;6245205;22;20013;-90
2022/07/08 14:12:57;;;;;;;;;;;36.70;24.40;;;;;;6218592;23;19911;-91
2022/07/08 14:15:22;;;;;;;;;;;36.40;24.50;;;;;;6246574;22;19930;-90